The Florida Keys Marathon Airport Marathon US
ICAO: KMTH
IATA: MTH
Category: Medium
Scheduled Services: No

Elevation: 5 ft
TransAlt. 18000 ft.

Airport Communications:
ASOS:135.525
MIAMI CNTR:133.5
MIAMI RDO:122.6
CTAF/UNICOM:122.8

KMTH Zoom In..

If you have problems with the map follow the link
https://www.worldairports.se/pages/airport.php?
ICAO=KMTH

Runways:

(A) RW 07 length 5008 ft width 100 ft
---- / hdg 71

(B) RW 25 length 5008 ft width 100 ft
---- / hdg 251

Location; KMTH
Day. 13 / Time. 20.53 Zulu
* Altimeter: 29.89
* Temperature: 27° c. 80.6°f.
* Wind from: 230° Speed 06 kn.
Dewpoint: 20° c.
Visibility: 10 Statute Miles.
Clouds: Clear (automated report).

KMTH 132053Z AUTO 23006KT 10SM CLR 27/20 A2989 RMK AO2 SLP122 T02670200 56011


Wind From 230°
Speed 06 kn.

 
 
jpsmedia worldairports.se 2019   terms of use